sensor_id;sensor_type;location;lat;lon;timestamp;P1;durP1;ratioP1;P2;durP2;ratioP2
50745;SDS011;36711;51.972;21.204;2022-11-20T00:01:39;59.20;;;20.50;;
50745;SDS011;36711;51.972;21.204;2022-11-20T00:04:09;57.00;;;20.80;;
50745;SDS011;36711;51.972;21.204;2022-11-20T00:06:38;61.30;;;21.50;;
50745;SDS011;36711;51.972;21.204;2022-11-20T00:09:09;61.60;;;26.40;;
50745;SDS011;36711;51.972;21.204;2022-11-20T00:11:38;45.70;;;19.90;;
50745;SDS011;36711;51.972;21.204;2022-11-20T00:14:08;42.60;;;18.30;;
50745;SDS011;36711;51.972;21.204;2022-11-20T00:16:38;48.70;;;18.40;;
50745;SDS011;36711;51.972;21.204;2022-11-20T00:19:07;46.40;;;19.00;;
50745;SDS011;36711;51.972;21.204;2022-11-20T00:21:36;46.00;;;19.80;;
50745;SDS011;36711;51.972;21.204;2022-11-20T00:24:05;50.80;;;20.90;;
50745;SDS011;36711;51.972;21.204;2022-11-20T00:26:34;52.60;;;20.40;;
50745;SDS011;36711;51.972;21.204;2022-11-20T00:29:03;52.30;;;21.70;;
50745;SDS011;36711;51.972;21.204;2022-11-20T00:31:31;46.90;;;20.70;;
50745;SDS011;36711;51.972;21.204;2022-11-20T00:34:02;47.10;;;20.80;;
50745;SDS011;36711;51.972;21.204;2022-11-20T00:36:32;55.70;;;20.50;;
50745;SDS011;36711;51.972;21.204;2022-11-20T00:39:01;46.50;;;20.70;;
50745;SDS011;36711;51.972;21.204;2022-11-20T00:41:30;53.20;;;21.40;;
50745;SDS011;36711;51.972;21.204;2022-11-20T00:43:59;41.30;;;17.00;;
50745;SDS011;36711;51.972;21.204;2022-11-20T00:46:28;48.90;;;19.50;;
50745;SDS011;36711;51.972;21.204;2022-11-20T00:48:57;48.80;;;21.20;;
50745;SDS011;36711;51.972;21.204;2022-11-20T00:51:26;51.70;;;20.20;;
50745;SDS011;36711;51.972;21.204;2022-11-20T00:53:56;45.80;;;19.90;;
50745;SDS011;36711;51.972;21.204;2022-11-20T00:56:25;49.90;;;18.90;;
50745;SDS011;36711;51.972;21.204;2022-11-20T00:58:54;49.10;;;19.90;;
50745;SDS011;36711;51.972;21.204;2022-11-20T01:01:24;51.20;;;20.40;;
50745;SDS011;36711;51.972;21.204;2022-11-20T01:03:54;53.60;;;20.70;;
50745;SDS011;36711;51.972;21.204;2022-11-20T01:08:53;46.80;;;17.50;;
50745;SDS011;36711;51.972;21.204;2022-11-20T01:11:23;44.20;;;18.30;;
50745;SDS011;36711;51.972;21.204;2022-11-20T01:13:53;45.70;;;19.40;;
50745;SDS011;36711;51.972;21.204;2022-11-20T01:16:26;45.90;;;18.90;;
50745;SDS011;36711;51.972;21.204;2022-11-20T01:18:57;52.60;;;20.50;;
50745;SDS011;36711;51.972;21.204;2022-11-20T01:21:30;49.20;;;20.40;;
50745;SDS011;36711;51.972;21.204;2022-11-20T01:24:00;49.60;;;19.60;;
50745;SDS011;36711;51.972;21.204;2022-11-20T01:26:30;48.10;;;20.10;;
50745;SDS011;36711;51.972;21.204;2022-11-20T01:29:00;53.00;;;20.00;;
50745;SDS011;36711;51.972;21.204;2022-11-20T01:31:30;48.00;;;20.20;;
50745;SDS011;36711;51.972;21.204;2022-11-20T01:34:00;46.30;;;19.40;;
50745;SDS011;36711;51.972;21.204;2022-11-20T01:36:30;45.10;;;19.20;;
50745;SDS011;36711;51.972;21.204;2022-11-20T01:39:01;44.20;;;19.10;;
50745;SDS011;36711;51.972;21.204;2022-11-20T01:41:31;47.60;;;19.90;;
50745;SDS011;36711;51.972;21.204;2022-11-20T01:44:20;42.40;;;17.50;;
50745;SDS011;36711;51.972;21.204;2022-11-20T01:46:59;48.30;;;18.50;;
50745;SDS011;36711;51.972;21.204;2022-11-20T01:52:00;57.80;;;20.00;;
50745;SDS011;36711;51.972;21.204;2022-11-20T01:54:32;54.40;;;19.60;;
50745;SDS011;36711;51.972;21.204;2022-11-20T01:57:02;51.20;;;20.70;;
50745;SDS011;36711;51.972;21.204;2022-11-20T01:59:32;52.90;;;21.80;;
50745;SDS011;36711;51.972;21.204;2022-11-20T02:02:01;46.20;;;17.70;;
50745;SDS011;36711;51.972;21.204;2022-11-20T02:04:30;37.60;;;17.10;;
50745;SDS011;36711;51.972;21.204;2022-11-20T02:07:00;48.20;;;19.20;;
50745;SDS011;36711;51.972;21.204;2022-11-20T02:09:29;38.40;;;17.50;;
50745;SDS011;36711;51.972;21.204;2022-11-20T02:11:58;42.60;;;18.80;;
50745;SDS011;36711;51.972;21.204;2022-11-20T02:14:27;49.10;;;19.00;;
50745;SDS011;36711;51.972;21.204;2022-11-20T02:16:56;45.70;;;20.00;;
50745;SDS011;36711;51.972;21.204;2022-11-20T02:19:26;44.00;;;20.00;;
50745;SDS011;36711;51.972;21.204;2022-11-20T02:24:24;52.50;;;21.40;;
50745;SDS011;36711;51.972;21.204;2022-11-20T02:26:55;45.00;;;18.60;;
50745;SDS011;36711;51.972;21.204;2022-11-20T02:29:31;49.90;;;21.50;;
50745;SDS011;36711;51.972;21.204;2022-11-20T02:32:01;44.40;;;17.70;;
50745;SDS011;36711;51.972;21.204;2022-11-20T02:34:31;50.00;;;19.80;;
50745;SDS011;36711;51.972;21.204;2022-11-20T02:36:59;49.00;;;19.80;;
50745;SDS011;36711;51.972;21.204;2022-11-20T02:39:28;52.90;;;20.30;;
50745;SDS011;36711;51.972;21.204;2022-11-20T02:41:57;47.70;;;20.60;;
50745;SDS011;36711;51.972;21.204;2022-11-20T02:44:29;51.30;;;19.20;;
50745;SDS011;36711;51.972;21.204;2022-11-20T02:46:58;57.20;;;20.60;;
50745;SDS011;36711;51.972;21.204;2022-11-20T02:49:27;66.30;;;22.30;;
50745;SDS011;36711;51.972;21.204;2022-11-20T02:51:56;62.10;;;24.30;;
50745;SDS011;36711;51.972;21.204;2022-11-20T02:54:25;49.00;;;20.50;;
50745;SDS011;36711;51.972;21.204;2022-11-20T02:56:53;50.60;;;18.70;;
50745;SDS011;36711;51.972;21.204;2022-11-20T02:59:22;39.60;;;18.90;;
50745;SDS011;36711;51.972;21.204;2022-11-20T03:01:51;46.80;;;18.80;;
50745;SDS011;36711;51.972;21.204;2022-11-20T03:04:20;45.40;;;19.40;;
50745;SDS011;36711;51.972;21.204;2022-11-20T03:06:49;47.10;;;19.60;;
50745;SDS011;36711;51.972;21.204;2022-11-20T03:09:18;50.20;;;20.80;;
50745;SDS011;36711;51.972;21.204;2022-11-20T03:11:48;46.00;;;20.10;;
50745;SDS011;36711;51.972;21.204;2022-11-20T03:14:17;47.60;;;20.90;;
50745;SDS011;36711;51.972;21.204;2022-11-20T03:16:46;50.90;;;21.20;;
50745;SDS011;36711;51.972;21.204;2022-11-20T03:19:14;54.30;;;21.30;;
50745;SDS011;36711;51.972;21.204;2022-11-20T03:21:43;58.20;;;22.40;;
50745;SDS011;36711;51.972;21.204;2022-11-20T03:24:12;38.40;;;17.70;;
50745;SDS011;36711;51.972;21.204;2022-11-20T03:26:41;48.30;;;18.40;;
50745;SDS011;36711;51.972;21.204;2022-11-20T03:29:10;54.10;;;20.70;;
50745;SDS011;36711;51.972;21.204;2022-11-20T03:31:40;51.10;;;19.20;;
50745;SDS011;36711;51.972;21.204;2022-11-20T03:34:10;46.50;;;18.60;;
50745;SDS011;36711;51.972;21.204;2022-11-20T03:36:39;54.40;;;21.40;;
50745;SDS011;36711;51.972;21.204;2022-11-20T03:39:08;58.10;;;21.20;;
50745;SDS011;36711;51.972;21.204;2022-11-20T03:41:38;53.10;;;21.50;;
50745;SDS011;36711;51.972;21.204;2022-11-20T03:44:08;54.50;;;21.30;;
50745;SDS011;36711;51.972;21.204;2022-11-20T03:46:37;48.10;;;18.60;;
50745;SDS011;36711;51.972;21.204;2022-11-20T03:49:06;33.70;;;16.10;;
50745;SDS011;36711;51.972;21.204;2022-11-20T03:51:35;42.30;;;18.40;;
50745;SDS011;36711;51.972;21.204;2022-11-20T03:54:08;41.30;;;18.40;;
50745;SDS011;36711;51.972;21.204;2022-11-20T03:56:37;43.80;;;17.60;;
50745;SDS011;36711;51.972;21.204;2022-11-20T03:59:06;48.80;;;19.50;;
50745;SDS011;36711;51.972;21.204;2022-11-20T04:01:36;45.50;;;20.40;;
50745;SDS011;36711;51.972;21.204;2022-11-20T04:04:06;45.10;;;19.40;;
50745;SDS011;36711;51.972;21.204;2022-11-20T04:06:36;48.10;;;21.00;;
50745;SDS011;36711;51.972;21.204;2022-11-20T04:09:05;45.00;;;21.40;;
50745;SDS011;36711;51.972;21.204;2022-11-20T04:11:35;46.70;;;19.90;;
50745;SDS011;36711;51.972;21.204;2022-11-20T04:14:05;46.40;;;18.60;;
50745;SDS011;36711;51.972;21.204;2022-11-20T04:16:34;45.30;;;18.90;;
50745;SDS011;36711;51.972;21.204;2022-11-20T04:19:05;51.90;;;20.50;;
50745;SDS011;36711;51.972;21.204;2022-11-20T04:21:34;46.20;;;19.30;;
50745;SDS011;36711;51.972;21.204;2022-11-20T04:24:03;49.10;;;20.00;;
50745;SDS011;36711;51.972;21.204;2022-11-20T04:26:32;52.00;;;20.50;;
50745;SDS011;36711;51.972;21.204;2022-11-20T04:29:01;57.10;;;21.50;;
50745;SDS011;36711;51.972;21.204;2022-11-20T04:31:31;58.20;;;22.80;;
50745;SDS011;36711;51.972;21.204;2022-11-20T04:34:01;56.30;;;21.80;;
50745;SDS011;36711;51.972;21.204;2022-11-20T04:36:31;44.70;;;18.30;;
50745;SDS011;36711;51.972;21.204;2022-11-20T04:39:02;53.30;;;19.80;;
50745;SDS011;36711;51.972;21.204;2022-11-20T04:41:32;34.80;;;16.40;;
50745;SDS011;36711;51.972;21.204;2022-11-20T04:44:02;39.80;;;17.60;;
50745;SDS011;36711;51.972;21.204;2022-11-20T04:46:41;38.60;;;17.20;;
50745;SDS011;36711;51.972;21.204;2022-11-20T04:49:10;46.20;;;19.50;;
50745;SDS011;36711;51.972;21.204;2022-11-20T04:51:40;43.80;;;19.00;;
50745;SDS011;36711;51.972;21.204;2022-11-20T04:54:09;46.80;;;19.60;;
50745;SDS011;36711;51.972;21.204;2022-11-20T04:56:39;42.70;;;19.10;;
50745;SDS011;36711;51.972;21.204;2022-11-20T04:59:08;45.30;;;20.00;;
50745;SDS011;36711;51.972;21.204;2022-11-20T05:01:37;49.10;;;20.30;;
50745;SDS011;36711;51.972;21.204;2022-11-20T05:04:06;42.10;;;19.60;;
50745;SDS011;36711;51.972;21.204;2022-11-20T05:06:35;45.10;;;19.40;;
50745;SDS011;36711;51.972;21.204;2022-11-20T05:09:03;45.20;;;18.60;;
50745;SDS011;36711;51.972;21.204;2022-11-20T05:11:32;45.60;;;19.10;;
50745;SDS011;36711;51.972;21.204;2022-11-20T05:14:01;45.20;;;18.50;;
50745;SDS011;36711;51.972;21.204;2022-11-20T05:16:30;45.80;;;19.00;;
50745;SDS011;36711;51.972;21.204;2022-11-20T05:18:59;45.00;;;17.20;;
50745;SDS011;36711;51.972;21.204;2022-11-20T05:21:29;50.60;;;19.40;;
50745;SDS011;36711;51.972;21.204;2022-11-20T05:23:58;61.60;;;23.00;;
50745;SDS011;36711;51.972;21.204;2022-11-20T05:26:27;53.20;;;21.10;;
50745;SDS011;36711;51.972;21.204;2022-11-20T05:28:56;37.80;;;16.40;;
50745;SDS011;36711;51.972;21.204;2022-11-20T05:31:24;41.50;;;16.80;;
50745;SDS011;36711;51.972;21.204;2022-11-20T05:33:56;40.20;;;17.10;;
50745;SDS011;36711;51.972;21.204;2022-11-20T05:36:25;53.50;;;19.20;;
50745;SDS011;36711;51.972;21.204;2022-11-20T05:38:54;45.60;;;20.30;;
50745;SDS011;36711;51.972;21.204;2022-11-20T05:41:29;45.50;;;20.50;;
50745;SDS011;36711;51.972;21.204;2022-11-20T05:43:58;46.00;;;19.80;;
50745;SDS011;36711;51.972;21.204;2022-11-20T05:46:27;41.90;;;19.00;;
50745;SDS011;36711;51.972;21.204;2022-11-20T05:48:57;50.00;;;20.00;;
50745;SDS011;36711;51.972;21.204;2022-11-20T05:51:27;44.90;;;19.40;;
50745;SDS011;36711;51.972;21.204;2022-11-20T05:53:56;43.40;;;19.90;;
50745;SDS011;36711;51.972;21.204;2022-11-20T05:56:25;52.80;;;21.40;;
50745;SDS011;36711;51.972;21.204;2022-11-20T05:58:54;42.60;;;19.20;;
50745;SDS011;36711;51.972;21.204;2022-11-20T06:01:24;38.60;;;17.80;;
50745;SDS011;36711;51.972;21.204;2022-11-20T06:03:53;41.90;;;18.40;;
50745;SDS011;36711;51.972;21.204;2022-11-20T06:06:22;42.40;;;17.20;;
50745;SDS011;36711;51.972;21.204;2022-11-20T06:08:51;44.10;;;18.10;;
50745;SDS011;36711;51.972;21.204;2022-11-20T06:11:20;53.50;;;19.20;;
50745;SDS011;36711;51.972;21.204;2022-11-20T06:13:49;38.70;;;16.50;;
50745;SDS011;36711;51.972;21.204;2022-11-20T06:16:19;43.50;;;19.40;;
50745;SDS011;36711;51.972;21.204;2022-11-20T06:18:48;47.90;;;18.60;;
50745;SDS011;36711;51.972;21.204;2022-11-20T06:21:19;38.30;;;15.70;;
50745;SDS011;36711;51.972;21.204;2022-11-20T06:23:48;42.90;;;16.90;;
50745;SDS011;36711;51.972;21.204;2022-11-20T06:26:26;40.40;;;18.40;;
50745;SDS011;36711;51.972;21.204;2022-11-20T06:28:56;41.10;;;17.90;;
50745;SDS011;36711;51.972;21.204;2022-11-20T06:31:25;42.30;;;19.80;;
50745;SDS011;36711;51.972;21.204;2022-11-20T06:33:54;50.70;;;20.50;;
50745;SDS011;36711;51.972;21.204;2022-11-20T06:36:23;43.40;;;20.10;;
50745;SDS011;36711;51.972;21.204;2022-11-20T06:38:52;42.70;;;20.30;;
50745;SDS011;36711;51.972;21.204;2022-11-20T06:41:21;48.40;;;19.90;;
50745;SDS011;36711;51.972;21.204;2022-11-20T06:43:50;46.10;;;20.90;;
50745;SDS011;36711;51.972;21.204;2022-11-20T06:46:19;45.20;;;20.30;;
50745;SDS011;36711;51.972;21.204;2022-11-20T06:48:49;51.20;;;22.30;;
50745;SDS011;36711;51.972;21.204;2022-11-20T06:51:17;48.10;;;20.60;;
50745;SDS011;36711;51.972;21.204;2022-11-20T06:53:47;50.40;;;20.80;;
50745;SDS011;36711;51.972;21.204;2022-11-20T06:56:15;43.60;;;19.40;;
50745;SDS011;36711;51.972;21.204;2022-11-20T06:58:44;45.00;;;19.10;;
50745;SDS011;36711;51.972;21.204;2022-11-20T07:01:14;47.20;;;20.20;;
50745;SDS011;36711;51.972;21.204;2022-11-20T07:03:43;55.60;;;22.50;;
50745;SDS011;36711;51.972;21.204;2022-11-20T07:06:12;52.80;;;21.90;;
50745;SDS011;36711;51.972;21.204;2022-11-20T07:08:40;60.70;;;23.90;;
50745;SDS011;36711;51.972;21.204;2022-11-20T07:11:11;58.40;;;23.80;;
50745;SDS011;36711;51.972;21.204;2022-11-20T07:13:40;48.90;;;21.50;;
50745;SDS011;36711;51.972;21.204;2022-11-20T07:16:09;48.40;;;18.90;;
50745;SDS011;36711;51.972;21.204;2022-11-20T07:18:38;44.10;;;19.00;;
50745;SDS011;36711;51.972;21.204;2022-11-20T07:21:08;39.10;;;17.60;;
50745;SDS011;36711;51.972;21.204;2022-11-20T07:23:37;43.80;;;20.90;;
50745;SDS011;36711;51.972;21.204;2022-11-20T07:26:07;47.30;;;20.40;;
50745;SDS011;36711;51.972;21.204;2022-11-20T07:28:36;49.90;;;21.40;;
50745;SDS011;36711;51.972;21.204;2022-11-20T07:31:05;41.70;;;20.60;;
50745;SDS011;36711;51.972;21.204;2022-11-20T07:33:35;45.70;;;20.40;;
50745;SDS011;36711;51.972;21.204;2022-11-20T07:36:04;44.00;;;20.00;;
50745;SDS011;36711;51.972;21.204;2022-11-20T07:38:33;54.20;;;21.60;;
50745;SDS011;36711;51.972;21.204;2022-11-20T07:41:01;46.90;;;21.90;;
50745;SDS011;36711;51.972;21.204;2022-11-20T07:43:30;48.40;;;21.30;;
50745;SDS011;36711;51.972;21.204;2022-11-20T07:46:04;49.30;;;20.60;;
50745;SDS011;36711;51.972;21.204;2022-11-20T07:48:33;45.30;;;19.70;;
50745;SDS011;36711;51.972;21.204;2022-11-20T07:51:02;44.30;;;20.80;;
50745;SDS011;36711;51.972;21.204;2022-11-20T07:53:30;46.10;;;20.90;;
50745;SDS011;36711;51.972;21.204;2022-11-20T07:56:00;39.20;;;21.20;;
50745;SDS011;36711;51.972;21.204;2022-11-20T07:58:29;40.00;;;20.50;;
50745;SDS011;36711;51.972;21.204;2022-11-20T08:01:02;40.20;;;18.70;;
50745;SDS011;36711;51.972;21.204;2022-11-20T08:03:32;37.10;;;19.10;;
50745;SDS011;36711;51.972;21.204;2022-11-20T08:06:01;42.00;;;19.80;;
50745;SDS011;36711;51.972;21.204;2022-11-20T08:08:30;43.80;;;20.90;;
50745;SDS011;36711;51.972;21.204;2022-11-20T08:11:01;41.80;;;20.10;;
50745;SDS011;36711;51.972;21.204;2022-11-20T08:13:51;35.10;;;17.10;;
50745;SDS011;36711;51.972;21.204;2022-11-20T08:16:48;34.90;;;17.90;;
50745;SDS011;36711;51.972;21.204;2022-11-20T08:19:17;35.70;;;18.70;;
50745;SDS011;36711;51.972;21.204;2022-11-20T08:21:47;36.10;;;19.80;;
50745;SDS011;36711;51.972;21.204;2022-11-20T08:24:16;33.80;;;21.00;;
50745;SDS011;36711;51.972;21.204;2022-11-20T08:26:45;31.70;;;20.50;;
50745;SDS011;36711;51.972;21.204;2022-11-20T08:29:14;31.50;;;20.00;;
50745;SDS011;36711;51.972;21.204;2022-11-20T08:31:42;32.60;;;22.60;;
50745;SDS011;36711;51.972;21.204;2022-11-20T08:34:37;32.10;;;22.50;;
50745;SDS011;36711;51.972;21.204;2022-11-20T08:37:06;28.70;;;21.90;;
50745;SDS011;36711;51.972;21.204;2022-11-20T08:39:35;32.20;;;20.30;;
50745;SDS011;36711;51.972;21.204;2022-11-20T08:42:07;28.20;;;21.00;;
50745;SDS011;36711;51.972;21.204;2022-11-20T08:44:36;30.50;;;20.80;;
50745;SDS011;36711;51.972;21.204;2022-11-20T08:47:05;28.30;;;21.30;;
50745;SDS011;36711;51.972;21.204;2022-11-20T08:49:34;29.00;;;20.80;;
50745;SDS011;36711;51.972;21.204;2022-11-20T08:52:03;32.80;;;20.50;;
50745;SDS011;36711;51.972;21.204;2022-11-20T08:54:32;29.00;;;21.70;;
50745;SDS011;36711;51.972;21.204;2022-11-20T08:57:00;27.40;;;21.40;;
50745;SDS011;36711;51.972;21.204;2022-11-20T08:59:29;25.20;;;19.90;;
50745;SDS011;36711;51.972;21.204;2022-11-20T09:02:20;25.50;;;19.90;;
50745;SDS011;36711;51.972;21.204;2022-11-20T09:04:48;26.10;;;19.70;;
50745;SDS011;36711;51.972;21.204;2022-11-20T09:07:17;24.50;;;19.20;;
50745;SDS011;36711;51.972;21.204;2022-11-20T09:09:46;26.00;;;19.30;;
50745;SDS011;36711;51.972;21.204;2022-11-20T09:12:36;25.00;;;18.70;;
50745;SDS011;36711;51.972;21.204;2022-11-20T09:15:05;21.50;;;17.90;;
50745;SDS011;36711;51.972;21.204;2022-11-20T09:17:34;24.60;;;17.50;;
50745;SDS011;36711;51.972;21.204;2022-11-20T09:20:03;23.40;;;17.80;;
50745;SDS011;36711;51.972;21.204;2022-11-20T09:22:32;21.00;;;17.10;;
50745;SDS011;36711;51.972;21.204;2022-11-20T09:25:01;19.30;;;17.00;;
50745;SDS011;36711;51.972;21.204;2022-11-20T09:27:30;20.90;;;15.70;;
50745;SDS011;36711;51.972;21.204;2022-11-20T09:29:58;19.80;;;16.30;;
50745;SDS011;36711;51.972;21.204;2022-11-20T09:32:27;23.30;;;16.30;;
50745;SDS011;36711;51.972;21.204;2022-11-20T09:34:56;19.30;;;16.30;;
50745;SDS011;36711;51.972;21.204;2022-11-20T09:37:25;18.40;;;16.00;;
50745;SDS011;36711;51.972;21.204;2022-11-20T09:39:54;19.10;;;15.20;;
50745;SDS011;36711;51.972;21.204;2022-11-20T09:42:41;17.90;;;16.00;;
50745;SDS011;36711;51.972;21.204;2022-11-20T09:52:59;16.50;;;14.60;;
50745;SDS011;36711;51.972;21.204;2022-11-20T09:55:33;19.30;;;15.40;;
50745;SDS011;36711;51.972;21.204;2022-11-20T09:58:04;16.30;;;14.30;;
50745;SDS011;36711;51.972;21.204;2022-11-20T10:00:35;16.30;;;14.40;;
50745;SDS011;36711;51.972;21.204;2022-11-20T10:03:18;16.40;;;14.80;;
50745;SDS011;36711;51.972;21.204;2022-11-20T10:05:51;16.60;;;14.20;;
50745;SDS011;36711;51.972;21.204;2022-11-20T10:08:22;18.70;;;15.10;;
50745;SDS011;36711;51.972;21.204;2022-11-20T10:10:53;17.20;;;14.80;;
50745;SDS011;36711;51.972;21.204;2022-11-20T10:21:02;16.30;;;14.60;;
50745;SDS011;36711;51.972;21.204;2022-11-20T10:26:05;17.80;;;15.00;;
50745;SDS011;36711;51.972;21.204;2022-11-20T10:31:30;19.90;;;15.00;;
50745;SDS011;36711;51.972;21.204;2022-11-20T10:34:01;17.40;;;15.40;;
50745;SDS011;36711;51.972;21.204;2022-11-20T10:36:41;16.50;;;14.80;;
50745;SDS011;36711;51.972;21.204;2022-11-20T10:39:24;18.30;;;15.40;;
50745;SDS011;36711;51.972;21.204;2022-11-20T10:41:55;18.50;;;14.90;;
50745;SDS011;36711;51.972;21.204;2022-11-20T10:44:28;19.40;;;15.40;;
50745;SDS011;36711;51.972;21.204;2022-11-20T10:47:22;17.80;;;15.00;;
50745;SDS011;36711;51.972;21.204;2022-11-20T10:49:52;16.90;;;14.90;;
50745;SDS011;36711;51.972;21.204;2022-11-20T11:00:36;19.90;;;15.30;;
50745;SDS011;36711;51.972;21.204;2022-11-20T11:03:20;18.10;;;15.70;;
50745;SDS011;36711;51.972;21.204;2022-11-20T11:08:24;21.40;;;17.50;;
50745;SDS011;36711;51.972;21.204;2022-11-20T11:13:26;23.70;;;17.60;;
50745;SDS011;36711;51.972;21.204;2022-11-20T11:15:55;25.90;;;18.50;;
50745;SDS011;36711;51.972;21.204;2022-11-20T11:20:54;22.70;;;17.70;;
50745;SDS011;36711;51.972;21.204;2022-11-20T11:23:40;24.70;;;18.20;;
50745;SDS011;36711;51.972;21.204;2022-11-20T11:26:19;23.90;;;18.70;;
50745;SDS011;36711;51.972;21.204;2022-11-20T11:29:01;23.20;;;18.20;;
50745;SDS011;36711;51.972;21.204;2022-11-20T11:31:31;25.20;;;18.00;;
50745;SDS011;36711;51.972;21.204;2022-11-20T11:34:07;24.20;;;17.90;;
50745;SDS011;36711;51.972;21.204;2022-11-20T11:36:36;25.90;;;19.10;;
50745;SDS011;36711;51.972;21.204;2022-11-20T11:39:05;24.70;;;18.70;;
50745;SDS011;36711;51.972;21.204;2022-11-20T11:41:35;25.50;;;18.60;;
50745;SDS011;36711;51.972;21.204;2022-11-20T11:44:26;24.90;;;18.10;;
50745;SDS011;36711;51.972;21.204;2022-11-20T11:47:19;25.20;;;18.80;;
50745;SDS011;36711;51.972;21.204;2022-11-20T11:50:00;26.50;;;18.60;;
50745;SDS011;36711;51.972;21.204;2022-11-20T11:52:29;28.00;;;18.60;;
50745;SDS011;36711;51.972;21.204;2022-11-20T11:55:00;26.10;;;18.80;;
50745;SDS011;36711;51.972;21.204;2022-11-20T11:57:42;26.40;;;18.70;;
50745;SDS011;36711;51.972;21.204;2022-11-20T12:00:15;24.20;;;17.20;;
50745;SDS011;36711;51.972;21.204;2022-11-20T12:07:47;29.20;;;17.50;;
50745;SDS011;36711;51.972;21.204;2022-11-20T12:13:08;27.50;;;17.10;;
50745;SDS011;36711;51.972;21.204;2022-11-20T12:15:39;29.40;;;18.10;;
50745;SDS011;36711;51.972;21.204;2022-11-20T12:18:16;26.90;;;17.60;;
50745;SDS011;36711;51.972;21.204;2022-11-20T12:23:38;29.70;;;17.70;;
50745;SDS011;36711;51.972;21.204;2022-11-20T12:26:22;27.90;;;18.50;;
50745;SDS011;36711;51.972;21.204;2022-11-20T12:28:59;28.00;;;17.70;;
50745;SDS011;36711;51.972;21.204;2022-11-20T12:37:02;27.30;;;17.70;;
50745;SDS011;36711;51.972;21.204;2022-11-20T12:39:41;30.90;;;17.70;;
50745;SDS011;36711;51.972;21.204;2022-11-20T12:50:17;32.10;;;18.20;;
50745;SDS011;36711;51.972;21.204;2022-11-20T12:52:53;38.90;;;19.60;;
50745;SDS011;36711;51.972;21.204;2022-11-20T12:57:54;33.80;;;18.90;;
50745;SDS011;36711;51.972;21.204;2022-11-20T13:00:24;38.70;;;20.00;;
50745;SDS011;36711;51.972;21.204;2022-11-20T13:05:59;37.40;;;19.60;;
50745;SDS011;36711;51.972;21.204;2022-11-20T13:18:35;38.70;;;21.00;;
50745;SDS011;36711;51.972;21.204;2022-11-20T13:21:15;39.60;;;20.30;;
50745;SDS011;36711;51.972;21.204;2022-11-20T13:23:44;36.60;;;20.00;;
50745;SDS011;36711;51.972;21.204;2022-11-20T13:28:58;38.30;;;19.80;;
50745;SDS011;36711;51.972;21.204;2022-11-20T13:31:31;36.30;;;19.00;;
50745;SDS011;36711;51.972;21.204;2022-11-20T13:34:02;36.70;;;19.70;;
50745;SDS011;36711;51.972;21.204;2022-11-20T13:36:32;37.00;;;19.20;;
50745;SDS011;36711;51.972;21.204;2022-11-20T13:39:01;30.90;;;16.80;;
50745;SDS011;36711;51.972;21.204;2022-11-20T13:41:31;37.80;;;17.40;;
50745;SDS011;36711;51.972;21.204;2022-11-20T13:47:04;35.70;;;18.30;;
50745;SDS011;36711;51.972;21.204;2022-11-20T13:49:33;34.00;;;17.40;;
50745;SDS011;36711;51.972;21.204;2022-11-20T13:54:45;35.10;;;18.20;;
50745;SDS011;36711;51.972;21.204;2022-11-20T14:00:09;48.80;;;17.50;;
50745;SDS011;36711;51.972;21.204;2022-11-20T14:02:40;39.10;;;19.40;;
50745;SDS011;36711;51.972;21.204;2022-11-20T14:05:22;41.30;;;20.40;;
50745;SDS011;36711;51.972;21.204;2022-11-20T14:07:51;45.50;;;20.90;;
50745;SDS011;36711;51.972;21.204;2022-11-20T14:10:27;35.70;;;18.00;;
50745;SDS011;36711;51.972;21.204;2022-11-20T14:13:10;31.90;;;15.80;;
50745;SDS011;36711;51.972;21.204;2022-11-20T14:15:39;30.70;;;15.30;;
50745;SDS011;36711;51.972;21.204;2022-11-20T14:18:13;38.10;;;17.10;;
50745;SDS011;36711;51.972;21.204;2022-11-20T14:20:43;36.00;;;18.20;;
50745;SDS011;36711;51.972;21.204;2022-11-20T14:23:12;48.00;;;20.80;;
50745;SDS011;36711;51.972;21.204;2022-11-20T14:25:43;50.40;;;21.90;;
50745;SDS011;36711;51.972;21.204;2022-11-20T14:28:18;57.20;;;22.30;;
50745;SDS011;36711;51.972;21.204;2022-11-20T14:30:48;50.20;;;21.20;;
50745;SDS011;36711;51.972;21.204;2022-11-20T14:33:18;49.10;;;20.40;;
50745;SDS011;36711;51.972;21.204;2022-11-20T14:35:49;45.00;;;20.70;;
50745;SDS011;36711;51.972;21.204;2022-11-20T14:38:20;41.40;;;18.80;;
50745;SDS011;36711;51.972;21.204;2022-11-20T14:40:50;41.00;;;18.50;;
50745;SDS011;36711;51.972;21.204;2022-11-20T14:43:23;42.60;;;20.10;;
50745;SDS011;36711;51.972;21.204;2022-11-20T14:46:02;39.50;;;18.20;;
50745;SDS011;36711;51.972;21.204;2022-11-20T14:48:41;36.50;;;16.50;;
50745;SDS011;36711;51.972;21.204;2022-11-20T14:51:22;37.80;;;17.10;;
50745;SDS011;36711;51.972;21.204;2022-11-20T14:53:51;42.50;;;18.80;;
50745;SDS011;36711;51.972;21.204;2022-11-20T14:56:21;53.00;;;21.40;;
50745;SDS011;36711;51.972;21.204;2022-11-20T14:58:59;44.60;;;20.10;;
50745;SDS011;36711;51.972;21.204;2022-11-20T15:01:28;34.20;;;15.90;;
50745;SDS011;36711;51.972;21.204;2022-11-20T15:04:06;37.50;;;14.50;;
50745;SDS011;36711;51.972;21.204;2022-11-20T15:06:35;38.10;;;14.20;;
50745;SDS011;36711;51.972;21.204;2022-11-20T15:09:04;38.90;;;16.90;;
50745;SDS011;36711;51.972;21.204;2022-11-20T15:11:34;44.20;;;18.40;;
50745;SDS011;36711;51.972;21.204;2022-11-20T15:14:05;37.30;;;17.00;;
50745;SDS011;36711;51.972;21.204;2022-11-20T15:16:35;40.30;;;17.30;;
50745;SDS011;36711;51.972;21.204;2022-11-20T15:19:04;38.50;;;17.70;;
50745;SDS011;36711;51.972;21.204;2022-11-20T15:21:44;37.10;;;17.40;;
50745;SDS011;36711;51.972;21.204;2022-11-20T15:24:13;33.60;;;16.40;;
50745;SDS011;36711;51.972;21.204;2022-11-20T15:26:43;35.70;;;17.10;;
50745;SDS011;36711;51.972;21.204;2022-11-20T15:29:12;35.40;;;16.80;;
50745;SDS011;36711;51.972;21.204;2022-11-20T15:31:41;32.90;;;15.10;;
50745;SDS011;36711;51.972;21.204;2022-11-20T15:34:12;34.60;;;16.30;;
50745;SDS011;36711;51.972;21.204;2022-11-20T15:36:42;40.60;;;17.80;;
50745;SDS011;36711;51.972;21.204;2022-11-20T15:39:11;49.50;;;18.90;;
50745;SDS011;36711;51.972;21.204;2022-11-20T15:41:40;53.20;;;20.30;;
50745;SDS011;36711;51.972;21.204;2022-11-20T15:44:09;57.80;;;20.60;;
50745;SDS011;36711;51.972;21.204;2022-11-20T15:46:39;39.20;;;17.10;;
50745;SDS011;36711;51.972;21.204;2022-11-20T15:49:12;31.90;;;13.00;;
50745;SDS011;36711;51.972;21.204;2022-11-20T15:51:41;28.10;;;13.20;;
50745;SDS011;36711;51.972;21.204;2022-11-20T15:56:40;28.50;;;14.70;;
50745;SDS011;36711;51.972;21.204;2022-11-20T15:59:09;36.00;;;15.30;;
50745;SDS011;36711;51.972;21.204;2022-11-20T16:01:38;29.10;;;14.40;;
50745;SDS011;36711;51.972;21.204;2022-11-20T16:04:11;36.80;;;16.40;;
50745;SDS011;36711;51.972;21.204;2022-11-20T16:06:40;35.60;;;16.80;;
50745;SDS011;36711;51.972;21.204;2022-11-20T16:09:09;35.30;;;16.70;;